sensor_id;sensor_type;location;lat;lon;timestamp;pressure;altitude;pressure_sealevel;temperature;humidity
46007;BME280;31738;50.188;8.524;2022-12-07T00:01:37;98885.34;;;4.07;92.32
46007;BME280;31738;50.188;8.524;2022-12-07T00:04:07;98885.78;;;4.04;93.08
46007;BME280;31738;50.188;8.524;2022-12-07T00:06:37;98889.03;;;4.06;92.71
46007;BME280;31738;50.188;8.524;2022-12-07T00:09:04;98889.38;;;4.10;93.17
46007;BME280;31738;50.188;8.524;2022-12-07T00:11:31;98894.22;;;4.13;93.16
46007;BME280;31738;50.188;8.524;2022-12-07T00:13:59;98887.06;;;4.13;92.68
46007;BME280;31738;50.188;8.524;2022-12-07T00:16:27;98892.16;;;4.15;93.49
46007;BME280;31738;50.188;8.524;2022-12-07T00:18:53;98874.41;;;4.15;93.21
46007;BME280;31738;50.188;8.524;2022-12-07T00:21:22;98878.53;;;4.11;93.44
46007;BME280;31738;50.188;8.524;2022-12-07T00:23:49;98857.88;;;4.13;93.14
46007;BME280;31738;50.188;8.524;2022-12-07T00:26:23;98862.13;;;4.14;93.46
46007;BME280;31738;50.188;8.524;2022-12-07T00:28:51;98854.63;;;4.11;93.24
46007;BME280;31738;50.188;8.524;2022-12-07T00:31:19;98852.56;;;4.13;93.53
46007;BME280;31738;50.188;8.524;2022-12-07T00:33:45;98848.41;;;4.17;93.63
46007;BME280;31738;50.188;8.524;2022-12-07T00:36:14;98856.97;;;4.19;93.66
46007;BME280;31738;50.188;8.524;2022-12-07T00:38:40;98848.63;;;4.16;93.20
46007;BME280;31738;50.188;8.524;2022-12-07T00:41:09;98842.31;;;4.17;93.65
46007;BME280;31738;50.188;8.524;2022-12-07T00:43:36;98847.41;;;4.18;93.60
46007;BME280;31738;50.188;8.524;2022-12-07T00:46:01;98844.50;;;4.20;93.54
46007;BME280;31738;50.188;8.524;2022-12-07T00:48:27;98845.88;;;4.22;93.59
46007;BME280;31738;50.188;8.524;2022-12-07T00:50:52;98850.16;;;4.23;92.99
46007;BME280;31738;50.188;8.524;2022-12-07T00:53:18;98854.91;;;4.21;93.42
46007;BME280;31738;50.188;8.524;2022-12-07T00:55:44;98848.78;;;4.21;93.20
46007;BME280;31738;50.188;8.524;2022-12-07T00:58:10;98856.16;;;4.19;93.54
46007;BME280;31738;50.188;8.524;2022-12-07T01:00:37;98854.31;;;4.19;93.52
46007;BME280;31738;50.188;8.524;2022-12-07T01:03:07;98837.78;;;4.17;93.06
46007;BME280;31738;50.188;8.524;2022-12-07T01:05:33;98843.94;;;4.18;93.38
46007;BME280;31738;50.188;8.524;2022-12-07T01:07:58;98841.03;;;4.19;93.41
46007;BME280;31738;50.188;8.524;2022-12-07T01:10:24;98841.63;;;4.21;93.72
46007;BME280;31738;50.188;8.524;2022-12-07T01:12:50;98829.13;;;4.22;93.54
46007;BME280;31738;50.188;8.524;2022-12-07T01:15:16;98836.09;;;4.23;93.37
46007;BME280;31738;50.188;8.524;2022-12-07T01:17:41;98820.94;;;4.23;93.56
46007;BME280;31738;50.188;8.524;2022-12-07T01:20:07;98816.09;;;4.20;93.65
46007;BME280;31738;50.188;8.524;2022-12-07T01:22:37;98815.63;;;4.23;93.33
46007;BME280;31738;50.188;8.524;2022-12-07T01:25:05;98817.28;;;4.24;93.09
46007;BME280;31738;50.188;8.524;2022-12-07T01:27:30;98816.00;;;4.27;93.44
46007;BME280;31738;50.188;8.524;2022-12-07T01:29:56;98815.19;;;4.26;93.23
46007;BME280;31738;50.188;8.524;2022-12-07T01:32:21;98823.72;;;4.28;93.37
46007;BME280;31738;50.188;8.524;2022-12-07T01:34:50;98830.09;;;4.27;93.98
46007;BME280;31738;50.188;8.524;2022-12-07T01:37:15;98827.44;;;4.27;93.61
46007;BME280;31738;50.188;8.524;2022-12-07T01:39:41;98835.94;;;4.29;93.33
46007;BME280;31738;50.188;8.524;2022-12-07T01:42:11;98845.78;;;4.29;93.69
46007;BME280;31738;50.188;8.524;2022-12-07T01:45:30;98840.94;;;4.26;93.97
46007;BME280;31738;50.188;8.524;2022-12-07T01:47:57;98839.31;;;4.25;93.73
46007;BME280;31738;50.188;8.524;2022-12-07T01:50:26;98827.44;;;4.27;93.53
46007;BME280;31738;50.188;8.524;2022-12-07T01:52:55;98826.63;;;4.27;93.58
46007;BME280;31738;50.188;8.524;2022-12-07T01:55:22;98824.19;;;4.25;93.82
46007;BME280;31738;50.188;8.524;2022-12-07T01:57:50;98828.22;;;4.28;93.78
46007;BME280;31738;50.188;8.524;2022-12-07T02:00:18;98816.81;;;4.27;93.97
46007;BME280;31738;50.188;8.524;2022-12-07T02:02:48;98820.50;;;4.26;93.57
46007;BME280;31738;50.188;8.524;2022-12-07T02:05:17;98817.75;;;4.21;94.34
46007;BME280;31738;50.188;8.524;2022-12-07T02:07:45;98817.75;;;4.21;93.59
46007;BME280;31738;50.188;8.524;2022-12-07T02:10:14;98814.03;;;4.22;94.04
46007;BME280;31738;50.188;8.524;2022-12-07T02:12:40;98811.03;;;4.19;93.84
46007;BME280;31738;50.188;8.524;2022-12-07T02:15:07;98802.28;;;4.18;94.42
46007;BME280;31738;50.188;8.524;2022-12-07T02:17:58;98805.25;;;4.10;94.42
46007;BME280;31738;50.188;8.524;2022-12-07T02:20:44;98801.56;;;4.11;94.82
46007;BME280;31738;50.188;8.524;2022-12-07T02:31:36;98786.34;;;3.95;95.14
46007;BME280;31738;50.188;8.524;2022-12-07T02:34:18;98790.72;;;4.01;94.49
46007;BME280;31738;50.188;8.524;2022-12-07T02:36:52;98785.97;;;4.03;94.73
46007;BME280;31738;50.188;8.524;2022-12-07T02:39:25;98785.09;;;4.09;95.03
46007;BME280;31738;50.188;8.524;2022-12-07T02:41:59;98780.78;;;4.08;94.80
46007;BME280;31738;50.188;8.524;2022-12-07T02:44:27;98784.63;;;4.12;94.92
46007;BME280;31738;50.188;8.524;2022-12-07T02:47:03;98787.59;;;4.16;94.55
46007;BME280;31738;50.188;8.524;2022-12-07T02:49:30;98783.69;;;4.18;94.60
46007;BME280;31738;50.188;8.524;2022-12-07T02:51:56;98783.00;;;4.23;94.62
46007;BME280;31738;50.188;8.524;2022-12-07T02:54:21;98784.97;;;4.27;94.74
46007;BME280;31738;50.188;8.524;2022-12-07T03:02:28;98774.34;;;4.27;94.37
46007;BME280;31738;50.188;8.524;2022-12-07T03:16:02;98772.25;;;4.29;94.55
46007;BME280;31738;50.188;8.524;2022-12-07T03:18:32;98770.16;;;4.31;95.26
46007;BME280;31738;50.188;8.524;2022-12-07T03:21:03;98764.63;;;4.33;95.30
46007;BME280;31738;50.188;8.524;2022-12-07T03:27:46;98773.16;;;4.23;94.91
46007;BME280;31738;50.188;8.524;2022-12-07T03:30:41;98762.78;;;4.22;94.56
46007;BME280;31738;50.188;8.524;2022-12-07T03:33:14;98760.47;;;4.25;94.87
46007;BME280;31738;50.188;8.524;2022-12-07T03:35:43;98758.19;;;4.29;94.73
46007;BME280;31738;50.188;8.524;2022-12-07T03:38:31;98758.97;;;4.29;95.34
46007;BME280;31738;50.188;8.524;2022-12-07T03:41:06;98766.69;;;4.31;95.27
46007;BME280;31738;50.188;8.524;2022-12-07T03:43:34;98765.69;;;4.32;94.86
46007;BME280;31738;50.188;8.524;2022-12-07T03:49:23;98758.50;;;4.32;94.96
46007;BME280;31738;50.188;8.524;2022-12-07T03:52:02;98756.44;;;4.34;95.52
46007;BME280;31738;50.188;8.524;2022-12-07T03:57:04;98746.28;;;4.43;95.25
46007;BME280;31738;50.188;8.524;2022-12-07T03:59:30;98747.06;;;4.43;95.13
46007;BME280;31738;50.188;8.524;2022-12-07T04:02:01;98752.16;;;4.45;95.13
46007;BME280;31738;50.188;8.524;2022-12-07T04:04:28;98747.41;;;4.47;94.60
46007;BME280;31738;50.188;8.524;2022-12-07T04:06:53;98745.09;;;4.50;94.86
46007;BME280;31738;50.188;8.524;2022-12-07T04:09:20;98749.38;;;4.51;95.08
46007;BME280;31738;50.188;8.524;2022-12-07T04:11:46;98745.66;;;4.52;94.98
46007;BME280;31738;50.188;8.524;2022-12-07T04:14:11;98750.97;;;4.52;95.30
46007;BME280;31738;50.188;8.524;2022-12-07T04:16:54;98751.78;;;4.53;94.97
46007;BME280;31738;50.188;8.524;2022-12-07T04:19:33;98745.66;;;4.52;95.38
46007;BME280;31738;50.188;8.524;2022-12-07T04:22:00;98743.59;;;4.54;94.89
46007;BME280;31738;50.188;8.524;2022-12-07T04:24:26;98749.94;;;4.53;95.71
46007;BME280;31738;50.188;8.524;2022-12-07T04:26:51;98738.50;;;4.53;95.29
46007;BME280;31738;50.188;8.524;2022-12-07T04:29:18;98746.81;;;4.56;95.71
46007;BME280;31738;50.188;8.524;2022-12-07T04:31:44;98738.84;;;4.56;95.93
46007;BME280;31738;50.188;8.524;2022-12-07T04:34:11;98735.72;;;4.59;95.52
46007;BME280;31738;50.188;8.524;2022-12-07T04:36:37;98735.72;;;4.59;95.19
46007;BME280;31738;50.188;8.524;2022-12-07T04:39:04;98740.22;;;4.59;95.71
46007;BME280;31738;50.188;8.524;2022-12-07T04:41:30;98735.72;;;4.59;95.34
46007;BME280;31738;50.188;8.524;2022-12-07T04:44:01;98737.69;;;4.64;95.48
46007;BME280;31738;50.188;8.524;2022-12-07T04:46:29;98733.28;;;4.69;95.40
46007;BME280;31738;50.188;8.524;2022-12-07T04:48:55;98732.56;;;4.74;95.47
46007;BME280;31738;50.188;8.524;2022-12-07T04:51:24;98724.94;;;4.77;95.05
46007;BME280;31738;50.188;8.524;2022-12-07T04:53:51;98740.88;;;4.77;95.41
46007;BME280;31738;50.188;8.524;2022-12-07T04:56:17;98734.50;;;4.78;95.19
46007;BME280;31738;50.188;8.524;2022-12-07T04:58:44;98736.94;;;4.80;95.96
46007;BME280;31738;50.188;8.524;2022-12-07T05:01:10;98729.19;;;4.78;95.59
46007;BME280;31738;50.188;8.524;2022-12-07T05:03:36;98727.94;;;4.81;95.10
46007;BME280;31738;50.188;8.524;2022-12-07T05:06:03;98739.09;;;4.83;95.17
46007;BME280;31738;50.188;8.524;2022-12-07T05:08:29;98740.97;;;4.82;95.14
46007;BME280;31738;50.188;8.524;2022-12-07T05:10:55;98737.50;;;4.82;95.28
46007;BME280;31738;50.188;8.524;2022-12-07T05:13:20;98727.69;;;4.82;95.78
46007;BME280;31738;50.188;8.524;2022-12-07T05:15:47;98730.34;;;4.82;95.88
46007;BME280;31738;50.188;8.524;2022-12-07T05:18:13;98724.22;;;4.82;95.44
46007;BME280;31738;50.188;8.524;2022-12-07T05:20:40;98728.47;;;4.83;95.55
46007;BME280;31738;50.188;8.524;2022-12-07T05:23:05;98737.28;;;4.83;95.09
46007;BME280;31738;50.188;8.524;2022-12-07T05:25:31;98734.38;;;4.85;95.09
46007;BME280;31738;50.188;8.524;2022-12-07T05:27:56;98738.88;;;4.84;95.30
46007;BME280;31738;50.188;8.524;2022-12-07T05:30:23;98745.00;;;4.85;95.06
46007;BME280;31738;50.188;8.524;2022-12-07T05:32:48;98735.19;;;4.85;95.20
46007;BME280;31738;50.188;8.524;2022-12-07T05:35:14;98742.13;;;4.86;95.27
46007;BME280;31738;50.188;8.524;2022-12-07T05:37:39;98734.97;;;4.87;95.58
46007;BME280;31738;50.188;8.524;2022-12-07T05:40:06;98738.44;;;4.87;95.54
46007;BME280;31738;50.188;8.524;2022-12-07T05:42:31;98740.50;;;4.85;95.40
46007;BME280;31738;50.188;8.524;2022-12-07T05:44:57;98734.13;;;4.86;95.58
46007;BME280;31738;50.188;8.524;2022-12-07T05:47:22;98738.63;;;4.86;95.58
46007;BME280;31738;50.188;8.524;2022-12-07T05:49:48;98733.13;;;4.87;95.32
46007;BME280;31738;50.188;8.524;2022-12-07T05:52:13;98733.44;;;4.91;95.31
46007;BME280;31738;50.188;8.524;2022-12-07T05:54:39;98735.84;;;4.92;95.23
46007;BME280;31738;50.188;8.524;2022-12-07T05:57:05;98735.84;;;4.92;95.57
46007;BME280;31738;50.188;8.524;2022-12-07T05:59:30;98736.44;;;4.94;95.51
46007;BME280;31738;50.188;8.524;2022-12-07T06:02:01;98731.69;;;4.96;95.04
46007;BME280;31738;50.188;8.524;2022-12-07T06:04:28;98733.06;;;4.99;95.10
46007;BME280;31738;50.188;8.524;2022-12-07T06:06:54;98732.81;;;5.00;95.33
46007;BME280;31738;50.188;8.524;2022-12-07T06:09:21;98733.41;;;5.02;95.23
46007;BME280;31738;50.188;8.524;2022-12-07T06:11:48;98734.75;;;5.05;95.22
46007;BME280;31738;50.188;8.524;2022-12-07T06:14:32;98730.50;;;5.04;95.33
46007;BME280;31738;50.188;8.524;2022-12-07T06:16:58;98732.94;;;5.05;95.30
46007;BME280;31738;50.188;8.524;2022-12-07T06:19:24;98742.50;;;5.06;94.97
46007;BME280;31738;50.188;8.524;2022-12-07T06:21:49;98740.09;;;5.05;94.97
46007;BME280;31738;50.188;8.524;2022-12-07T06:24:16;98737.19;;;5.06;95.25
46007;BME280;31738;50.188;8.524;2022-12-07T06:26:42;98735.59;;;5.05;95.04
46007;BME280;31738;50.188;8.524;2022-12-07T06:29:08;98737.66;;;5.03;95.06
46007;BME280;31738;50.188;8.524;2022-12-07T06:31:35;98725.44;;;5.02;94.83
46007;BME280;31738;50.188;8.524;2022-12-07T06:34:02;98729.09;;;5.01;95.03
46007;BME280;31738;50.188;8.524;2022-12-07T06:36:29;98738.13;;;5.00;94.50
46007;BME280;31738;50.188;8.524;2022-12-07T06:38:54;98737.31;;;5.00;94.88
46007;BME280;31738;50.188;8.524;2022-12-07T06:41:20;98738.13;;;5.00;94.70
46007;BME280;31738;50.188;8.524;2022-12-07T06:43:49;98738.59;;;4.97;94.99
46007;BME280;31738;50.188;8.524;2022-12-07T06:46:16;98744.50;;;4.99;94.56
46007;BME280;31738;50.188;8.524;2022-12-07T06:48:42;98743.69;;;4.99;94.57
46007;BME280;31738;50.188;8.524;2022-12-07T06:51:08;98752.47;;;4.99;94.51
46007;BME280;31738;50.188;8.524;2022-12-07T06:53:34;98752.47;;;4.99;94.77
46007;BME280;31738;50.188;8.524;2022-12-07T06:55:59;98745.53;;;4.98;94.43
46007;BME280;31738;50.188;8.524;2022-12-07T06:58:25;98756.16;;;4.98;94.76
46007;BME280;31738;50.188;8.524;2022-12-07T07:00:50;98754.09;;;5.00;94.99
46007;BME280;31738;50.188;8.524;2022-12-07T07:03:16;98749.09;;;5.04;95.18
46007;BME280;31738;50.188;8.524;2022-12-07T07:05:43;98764.81;;;5.05;94.47
46007;BME280;31738;50.188;8.524;2022-12-07T07:08:09;98755.78;;;5.06;94.74
46007;BME280;31738;50.188;8.524;2022-12-07T07:10:35;98760.63;;;5.09;94.54
46007;BME280;31738;50.188;8.524;2022-12-07T07:13:01;98754.50;;;5.09;94.60
46007;BME280;31738;50.188;8.524;2022-12-07T07:15:26;98762.81;;;5.12;94.90
46007;BME280;31738;50.188;8.524;2022-12-07T07:17:52;98761.56;;;5.15;94.98
46007;BME280;31738;50.188;8.524;2022-12-07T07:20:18;98759.44;;;5.17;94.79
46007;BME280;31738;50.188;8.524;2022-12-07T07:22:43;98768.81;;;5.19;94.34
46007;BME280;31738;50.188;8.524;2022-12-07T07:25:09;98759.78;;;5.20;94.27
46007;BME280;31738;50.188;8.524;2022-12-07T07:27:34;98764.03;;;5.21;94.60
46007;BME280;31738;50.188;8.524;2022-12-07T07:30:00;98764.03;;;5.21;94.84
46007;BME280;31738;50.188;8.524;2022-12-07T07:32:25;98758.72;;;5.21;94.63
46007;BME280;31738;50.188;8.524;2022-12-07T07:34:51;98772.25;;;5.20;94.64
46007;BME280;31738;50.188;8.524;2022-12-07T07:37:16;98770.06;;;5.17;94.35
46007;BME280;31738;50.188;8.524;2022-12-07T07:39:42;98767.41;;;5.17;94.58
46007;BME280;31738;50.188;8.524;2022-12-07T07:42:07;98771.72;;;5.18;94.79
46007;BME280;31738;50.188;8.524;2022-12-07T07:44:36;98774.13;;;5.19;94.72
46007;BME280;31738;50.188;8.524;2022-12-07T07:47:03;98772.25;;;5.20;94.87
46007;BME280;31738;50.188;8.524;2022-12-07T07:49:28;98777.34;;;5.21;94.99
46007;BME280;31738;50.188;8.524;2022-12-07T07:51:54;98772.25;;;5.20;94.82
46007;BME280;31738;50.188;8.524;2022-12-07T07:54:19;98780.81;;;5.22;94.33
46007;BME280;31738;50.188;8.524;2022-12-07T07:56:45;98781.63;;;5.22;94.84
46007;BME280;31738;50.188;8.524;2022-12-07T07:59:10;98776.56;;;5.21;94.99
46007;BME280;31738;50.188;8.524;2022-12-07T08:01:35;98771.78;;;5.23;94.72
46007;BME280;31738;50.188;8.524;2022-12-07T08:04:01;98773.97;;;5.26;94.73
46007;BME280;31738;50.188;8.524;2022-12-07T08:06:26;98780.91;;;5.27;94.84
46007;BME280;31738;50.188;8.524;2022-12-07T08:08:52;98779.63;;;5.29;94.60
46007;BME280;31738;50.188;8.524;2022-12-07T08:11:18;98772.22;;;5.32;94.42
46007;BME280;31738;50.188;8.524;2022-12-07T08:13:46;98776.25;;;5.34;94.89
46007;BME280;31738;50.188;8.524;2022-12-07T08:16:12;98772.28;;;5.37;95.01
46007;BME280;31738;50.188;8.524;2022-12-07T08:18:39;98774.25;;;5.41;94.81
46007;BME280;31738;50.188;8.524;2022-12-07T08:21:08;98773.22;;;5.42;94.56
46007;BME280;31738;50.188;8.524;2022-12-07T08:23:34;98782.25;;;5.41;94.88
46007;BME280;31738;50.188;8.524;2022-12-07T08:26:01;98782.78;;;5.43;94.74
46007;BME280;31738;50.188;8.524;2022-12-07T08:28:28;98774.81;;;5.43;94.39
46007;BME280;31738;50.188;8.524;2022-12-07T08:31:01;98777.72;;;5.42;94.28
46007;BME280;31738;50.188;8.524;2022-12-07T08:33:27;98783.84;;;5.42;94.22
46007;BME280;31738;50.188;8.524;2022-12-07T08:35:52;98784.41;;;5.44;94.18
46007;BME280;31738;50.188;8.524;2022-12-07T08:38:18;98787.97;;;5.50;94.44
46007;BME280;31738;50.188;8.524;2022-12-07T08:40:43;98780.63;;;5.57;94.55
46007;BME280;31738;50.188;8.524;2022-12-07T08:43:09;98771.13;;;5.61;94.30
46007;BME280;31738;50.188;8.524;2022-12-07T08:45:34;98778.06;;;5.62;94.39
46007;BME280;31738;50.188;8.524;2022-12-07T08:48:07;98781.41;;;5.69;94.19
46007;BME280;31738;50.188;8.524;2022-12-07T08:50:36;98784.69;;;5.76;94.31
46007;BME280;31738;50.188;8.524;2022-12-07T08:53:03;98781.69;;;5.84;94.32
46007;BME280;31738;50.188;8.524;2022-12-07T08:55:30;98786.34;;;5.93;94.11
46007;BME280;31738;50.188;8.524;2022-12-07T08:57:58;98784.41;;;6.05;93.98
46007;BME280;31738;50.188;8.524;2022-12-07T09:00:24;98788.53;;;6.13;93.87
46007;BME280;31738;50.188;8.524;2022-12-07T09:02:51;98787.53;;;6.19;93.56
46007;BME280;31738;50.188;8.524;2022-12-07T09:05:16;98795.38;;;6.25;93.54
46007;BME280;31738;50.188;8.524;2022-12-07T09:07:49;98792.47;;;6.27;93.18
46007;BME280;31738;50.188;8.524;2022-12-07T09:10:17;98802.16;;;6.33;93.18
46007;BME280;31738;50.188;8.524;2022-12-07T09:12:42;98795.88;;;6.44;93.52
46007;BME280;31738;50.188;8.524;2022-12-07T09:15:08;98796.63;;;6.56;92.90
46007;BME280;31738;50.188;8.524;2022-12-07T09:17:35;98800.47;;;6.65;92.61
46007;BME280;31738;50.188;8.524;2022-12-07T09:20:02;98817.06;;;6.72;92.06
46007;BME280;31738;50.188;8.524;2022-12-07T09:22:31;98819.25;;;6.75;92.23
46007;BME280;31738;50.188;8.524;2022-12-07T09:24:57;98828.88;;;6.76;91.86
46007;BME280;31738;50.188;8.524;2022-12-07T09:27:23;98840.66;;;6.80;91.54
46007;BME280;31738;50.188;8.524;2022-12-07T09:29:48;98839.03;;;6.79;91.33
46007;BME280;31738;50.188;8.524;2022-12-07T09:32:14;98850.81;;;6.83;91.00
46007;BME280;31738;50.188;8.524;2022-12-07T09:34:40;98854.53;;;6.82;90.89
46007;BME280;31738;50.188;8.524;2022-12-07T09:37:05;98849.88;;;6.72;90.62
46007;BME280;31738;50.188;8.524;2022-12-07T09:39:32;98850.84;;;6.66;90.40
46007;BME280;31738;50.188;8.524;2022-12-07T09:41:59;98860.63;;;6.61;90.42
46007;BME280;31738;50.188;8.524;2022-12-07T09:44:26;98857.41;;;6.59;90.38
46007;BME280;31738;50.188;8.524;2022-12-07T09:46:52;98861.59;;;6.55;90.39
46007;BME280;31738;50.188;8.524;2022-12-07T09:49:21;98853.84;;;6.53;90.06
46007;BME280;31738;50.188;8.524;2022-12-07T09:51:47;98861.53;;;6.50;89.96
46007;BME280;31738;50.188;8.524;2022-12-07T09:54:15;98862.81;;;6.47;89.78
46007;BME280;31738;50.188;8.524;2022-12-07T09:56:43;98852.16;;;6.47;89.89
46007;BME280;31738;50.188;8.524;2022-12-07T09:59:13;98860.41;;;6.46;89.74
46007;BME280;31738;50.188;8.524;2022-12-07T10:01:41;98850.56;;;6.46;89.33
46007;BME280;31738;50.188;8.524;2022-12-07T10:04:19;98859.59;;;6.45;89.53
46007;BME280;31738;50.188;8.524;2022-12-07T10:06:46;98850.22;;;6.43;89.72
46007;BME280;31738;50.188;8.524;2022-12-07T10:09:15;98851.03;;;6.43;89.59
46007;BME280;31738;50.188;8.524;2022-12-07T10:12:10;98851.53;;;6.40;89.49
46007;BME280;31738;50.188;8.524;2022-12-07T10:14:57;98849.59;;;6.36;89.78
46007;BME280;31738;50.188;8.524;2022-12-07T10:17:39;98844.75;;;6.33;89.35
46007;BME280;31738;50.188;8.524;2022-12-07T10:22:37;98845.78;;;6.32;89.38
46007;BME280;31738;50.188;8.524;2022-12-07T10:25:19;98842.09;;;6.33;89.07
46007;BME280;31738;50.188;8.524;2022-12-07T10:27:57;98843.94;;;6.32;88.97
46007;BME280;31738;50.188;8.524;2022-12-07T10:30:23;98837.81;;;6.32;88.30
46007;BME280;31738;50.188;8.524;2022-12-07T10:32:49;98838.84;;;6.31;88.40
46007;BME280;31738;50.188;8.524;2022-12-07T10:35:19;98841.75;;;6.29;88.06
46007;BME280;31738;50.188;8.524;2022-12-07T10:37:47;98836.19;;;6.31;87.74
46007;BME280;31738;50.188;8.524;2022-12-07T10:40:35;98838.38;;;6.34;87.58
46007;BME280;31738;50.188;8.524;2022-12-07T10:48:39;98851.13;;;6.32;87.10
46007;BME280;31738;50.188;8.524;2022-12-07T10:51:34;98848.47;;;6.32;86.45
46007;BME280;31738;50.188;8.524;2022-12-07T10:56:47;98853.47;;;6.45;85.97
46007;BME280;31738;50.188;8.524;2022-12-07T11:02:15;98840.84;;;6.57;86.19
46007;BME280;31738;50.188;8.524;2022-12-07T11:05:05;98843.59;;;6.62;86.16
46007;BME280;31738;50.188;8.524;2022-12-07T11:08:03;98843.09;;;6.65;86.04
46007;BME280;31738;50.188;8.524;2022-12-07T11:11:14;98850.63;;;6.68;85.63
46007;BME280;31738;50.188;8.524;2022-12-07T11:13:53;98850.13;;;6.71;85.87
46007;BME280;31738;50.188;8.524;2022-12-07T11:19:05;98852.28;;;6.74;85.55
46007;BME280;31738;50.188;8.524;2022-12-07T11:24:20;98832.06;;;6.78;86.20
46007;BME280;31738;50.188;8.524;2022-12-07T11:32:23;98840.06;;;6.78;84.49
46007;BME280;31738;50.188;8.524;2022-12-07T11:37:55;98839.47;;;6.92;85.16
46007;BME280;31738;50.188;8.524;2022-12-07T11:40:31;98831.34;;;7.04;84.53
46007;BME280;31738;50.188;8.524;2022-12-07T11:43:05;98817.59;;;7.12;84.74
46007;BME280;31738;50.188;8.524;2022-12-07T11:45:58;98820.88;;;7.19;84.26
46007;BME280;31738;50.188;8.524;2022-12-07T11:48:33;98815.53;;;7.19;84.20
46007;BME280;31738;50.188;8.524;2022-12-07T11:51:04;98831.03;;;7.22;84.18
46007;BME280;31738;50.188;8.524;2022-12-07T12:01:44;98822.03;;;7.28;83.65
46007;BME280;31738;50.188;8.524;2022-12-07T12:06:40;98816.16;;;7.26;83.25
46007;BME280;31738;50.188;8.524;2022-12-07T12:17:32;98809.09;;;7.15;84.05
46007;BME280;31738;50.188;8.524;2022-12-07T12:20:21;98801.00;;;7.05;84.17
46007;BME280;31738;50.188;8.524;2022-12-07T12:25:45;98796.94;;;7.03;84.22
46007;BME280;31738;50.188;8.524;2022-12-07T12:28:32;98797.75;;;7.03;84.09
46007;BME280;31738;50.188;8.524;2022-12-07T12:33:50;98785.66;;;7.17;84.65
46007;BME280;31738;50.188;8.524;2022-12-07T12:50:16;98779.19;;;7.13;85.50
46007;BME280;31738;50.188;8.524;2022-12-07T12:53:05;98770.59;;;7.06;85.52
46007;BME280;31738;50.188;8.524;2022-12-07T13:02:38;98758.38;;;6.88;86.53
46007;BME280;31738;50.188;8.524;2022-12-07T13:10:34;98748.41;;;6.79;86.45
46007;BME280;31738;50.188;8.524;2022-12-07T13:29:15;98738.19;;;6.49;87.18
46007;BME280;31738;50.188;8.524;2022-12-07T13:31:45;98730.19;;;6.49;87.38
46007;BME280;31738;50.188;8.524;2022-12-07T13:34:38;98721.88;;;6.46;87.00
46007;BME280;31738;50.188;8.524;2022-12-07T13:39:34;98721.06;;;6.45;87.46
46007;BME280;31738;50.188;8.524;2022-12-07T13:42:19;98728.75;;;6.42;87.04
46007;BME280;31738;50.188;8.524;2022-12-07T13:44:46;98724.94;;;6.38;87.36
46007;BME280;31738;50.188;8.524;2022-12-07T13:52:25;98721.91;;;6.29;87.26
46007;BME280;31738;50.188;8.524;2022-12-07T13:57:29;98726.38;;;6.24;87.15
46007;BME280;31738;50.188;8.524;2022-12-07T13:59:59;98727.91;;;6.20;87.30
46007;BME280;31738;50.188;8.524;2022-12-07T14:02:30;98723.06;;;6.17;87.30
46007;BME280;31738;50.188;8.524;2022-12-07T14:05:35;98720.81;;;6.09;87.37
46007;BME280;31738;50.188;8.524;2022-12-07T14:08:21;98721.31;;;6.06;87.42
46007;BME280;31738;50.188;8.524;2022-12-07T14:13:33;98727.63;;;6.00;87.61
46007;BME280;31738;50.188;8.524;2022-12-07T14:16:54;98721.50;;;5.99;88.00
46007;BME280;31738;50.188;8.524;2022-12-07T14:18:51;98725.19;;;5.98;87.46
46007;BME280;31738;50.188;8.524;2022-12-07T14:21:19;98727.63;;;6.00;87.63
46007;BME280;31738;50.188;8.524;2022-12-07T14:23:45;98718.03;;;5.99;87.68
46007;BME280;31738;50.188;8.524;2022-12-07T14:26:26;98710.53;;;5.96;88.00
46007;BME280;31738;50.188;8.524;2022-12-07T14:28:52;98711.81;;;5.93;87.91
46007;BME280;31738;50.188;8.524;2022-12-07T14:31:21;98704.06;;;5.92;87.79
46007;BME280;31738;50.188;8.524;2022-12-07T14:33:49;98706.19;;;5.90;88.03
46007;BME280;31738;50.188;8.524;2022-12-07T14:36:15;98702.63;;;5.84;88.62
46007;BME280;31738;50.188;8.524;2022-12-07T14:38:40;98707.59;;;5.81;88.11
46007;BME280;31738;50.188;8.524;2022-12-07T14:41:14;98703.25;;;5.75;88.59
46007;BME280;31738;50.188;8.524;2022-12-07T14:43:59;98707.94;;;5.68;88.83
46007;BME280;31738;50.188;8.524;2022-12-07T14:46:25;98705.19;;;5.63;88.52
46007;BME280;31738;50.188;8.524;2022-12-07T14:48:51;98697.13;;;5.58;88.68
46007;BME280;31738;50.188;8.524;2022-12-07T14:51:16;98694.97;;;5.55;88.50
46007;BME280;31738;50.188;8.524;2022-12-07T14:53:50;98687.47;;;5.52;88.55
46007;BME280;31738;50.188;8.524;2022-12-07T14:56:17;98692.13;;;5.45;89.34
46007;BME280;31738;50.188;8.524;2022-12-07T14:58:45;98688.09;;;5.42;89.07
46007;BME280;31738;50.188;8.524;2022-12-07T15:01:13;98686.72;;;5.40;88.95
46007;BME280;31738;50.188;8.524;2022-12-07T15:03:42;98683.75;;;5.36;89.04
46007;BME280;31738;50.188;8.524;2022-12-07T15:06:13;98684.47;;;5.32;89.34
46007;BME280;31738;50.188;8.524;2022-12-07T15:08:39;98676.16;;;5.28;89.22
46007;BME280;31738;50.188;8.524;2022-12-07T15:11:15;98672.13;;;5.25;89.64
46007;BME280;31738;50.188;8.524;2022-12-07T15:13:56;98677.94;;;5.22;89.93
46007;BME280;31738;50.188;8.524;2022-12-07T15:16:49;98669.88;;;5.17;89.58
46007;BME280;31738;50.188;8.524;2022-12-07T15:19:31;98667.44;;;5.16;89.91
46007;BME280;31738;50.188;8.524;2022-12-07T15:21:57;98668.28;;;5.16;89.85
46007;BME280;31738;50.188;8.524;2022-12-07T15:24:25;98671.94;;;5.15;89.80
46007;BME280;31738;50.188;8.524;2022-12-07T15:26:57;98671.16;;;5.15;90.07
46007;BME280;31738;50.188;8.524;2022-12-07T15:29:26;98662.38;;;5.14;89.87
46007;BME280;31738;50.188;8.524;2022-12-07T15:32:06;98666.41;;;5.17;90.54
46007;BME280;31738;50.188;8.524;2022-12-07T15:34:32;98662.94;;;5.16;90.14
46007;BME280;31738;50.188;8.524;2022-12-07T15:37:10;98655.22;;;5.15;90.18
46007;BME280;31738;50.188;8.524;2022-12-07T15:39:36;98650.81;;;4.92;90.45
46007;BME280;31738;50.188;8.524;2022-12-07T15:42:02;98653.00;;;4.95;91.12
46007;BME280;31738;50.188;8.524;2022-12-07T15:44:28;98653.91;;;5.01;91.26
46007;BME280;31738;50.188;8.524;2022-12-07T15:47:18;98649.72;;;5.05;91.39